Calvin, Texas
Current Conditions -  °F | °C
As of 10:55 AM on Friday 28 Nov 2014 (Local Time) from KGYB Reporting Station
Scattered Clouds Scattered Clouds  
Wind Chill: 65°   Ceiling: Unl
Heat Index: 65°   Visibility: 10mi
Dew Point: 52°   Wind: 10mph
Humidity: 64%   Direction: 180°S
Pressure: 30.33"   Gusts: 16mph
Location:  30.1644°N, 97.2747°W
Report Text: KGYB 281655Z AUTO 18009G14KT 10SM SCT023 SCT029 18/11 A3033 RMK AO2 T01810111
Loading
Personal Weather Stations






























Interactive Weather Map New forecast layout! Learn more

10-Day Weather Forecast

Advertisements
Track Severe Weather on mobile